Time;durP1;ratioP1;P1;durP2;ratioP2;P2;SDS_P1;SDS_P2;PMS_P1;PMS_P2;Temp;Humidity;BMP_temperature;BMP_pressure;BME280_temperature;BME280_humidity;BME280_pressure;Samples;Min_cycle;Max_cycle;Signal;HPM_P1;HPM_P2
2023/07/03 00:01:51;;;;;;;1999.90;999.90;;;16.10;99.90;;;;;;4916228;29;20116;-73
2023/07/03 00:04:17;;;;;;;1999.90;999.90;;;16.20;99.90;;;;;;4917261;29;20058;-72
2023/07/03 00:06:44;;;;;;;1999.90;999.90;;;16.20;99.90;;;;;;4885036;29;20091;-73
2023/07/03 00:09:10;;;;;;;1999.90;999.90;;;16.10;99.90;;;;;;4916977;29;20477;-73
2023/07/03 00:11:35;;;;;;;1999.90;999.90;;;16.10;99.90;;;;;;4917180;29;20127;-73
2023/07/03 00:14:01;;;;;;;1999.90;999.90;;;16.10;99.90;;;;;;4900142;29;20552;-73
2023/07/03 00:16:27;;;;;;;1999.90;999.90;;;16.10;99.90;;;;;;4916594;29;20066;-72
2023/07/03 00:18:53;;;;;;;1999.90;999.90;;;16.10;99.90;;;;;;4917136;29;20088;-72
2023/07/03 00:21:18;;;;;;;1999.90;999.90;;;16.10;99.90;;;;;;4900094;29;20058;-73
2023/07/03 00:23:44;;;;;;;1999.90;999.90;;;16.10;99.90;;;;;;4915999;29;20052;-73
2023/07/03 00:26:10;;;;;;;1999.90;999.90;;;16.10;99.90;;;;;;4916790;29;20048;-73
2023/07/03 00:28:35;;;;;;;1999.90;999.90;;;16.10;99.90;;;;;;4916662;29;20048;-72
2023/07/03 00:31:01;;;;;;;1999.90;999.90;;;16.10;99.90;;;;;;4916888;29;20040;-73
2023/07/03 00:33:27;;;;;;;1999.90;999.90;;;16.10;99.90;;;;;;4916955;29;20045;-73
2023/07/03 00:35:52;;;;;;;1999.90;999.90;;;16.10;99.90;;;;;;4915485;29;20512;-72
2023/07/03 00:38:18;;;;;;;1999.90;999.90;;;16.00;99.90;;;;;;4915614;29;20500;-73
2023/07/03 00:40:44;;;;;;;1999.90;999.90;;;16.00;99.90;;;;;;4915763;29;20135;-73
2023/07/03 00:43:09;;;;;;;1999.90;999.90;;;16.00;99.90;;;;;;4916541;29;20063;-72
2023/07/03 00:45:36;;;;;;;1999.90;999.90;;;16.00;99.90;;;;;;4919035;29;20056;-72
2023/07/03 00:48:02;;;;;;;1999.90;999.90;;;16.00;99.90;;;;;;4919299;29;20048;-73
2023/07/03 00:50:28;;;;;;;1999.90;999.90;;;16.10;99.90;;;;;;4920301;29;20055;-73
2023/07/03 00:52:59;;;;;;;1999.90;999.90;;;16.10;99.90;;;;;;4919041;29;20094;-73
2023/07/03 00:55:25;;;;;;;1999.90;999.90;;;16.10;99.90;;;;;;4920312;29;20056;-73
2023/07/03 00:57:51;;;;;;;1999.90;999.90;;;16.10;99.90;;;;;;4920173;29;20484;-73
2023/07/03 01:00:18;;;;;;;1999.90;999.90;;;16.10;99.90;;;;;;4920629;29;20052;-73
2023/07/03 01:02:55;;;;;;;1999.90;999.90;;;16.10;99.90;;;;;;4920144;29;20111;-72
2023/07/03 01:05:45;;;;;;;1999.90;999.90;;;16.10;99.90;;;;;;4920131;29;20048;-72
2023/07/03 01:08:11;;;;;;;1999.90;999.90;;;16.10;99.90;;;;;;4919189;29;20147;-72
2023/07/03 01:10:39;;;;;;;1999.90;999.90;;;16.10;99.90;;;;;;4919045;29;20052;-73
2023/07/03 01:13:08;;;;;;;1999.90;999.90;;;16.10;99.90;;;;;;4919913;29;20504;-73
2023/07/03 01:15:38;;;;;;;1999.90;999.90;;;16.10;99.90;;;;;;4919724;29;20074;-73
2023/07/03 01:18:05;;;;;;;1999.90;999.90;;;16.10;99.90;;;;;;4919925;29;20059;-73
2023/07/03 01:20:48;;;;;;;1999.90;999.90;;;16.10;99.90;;;;;;4919698;29;20412;-73
2023/07/03 01:23:24;;;;;;;1999.90;999.90;;;16.10;99.90;;;;;;4919990;29;20048;-92
2023/07/03 01:25:51;;;;;;;1999.90;999.90;;;16.10;99.90;;;;;;4920590;29;20456;-87
2023/07/03 01:28:20;;;;;;;1999.90;999.90;;;16.10;99.90;;;;;;4920129;29;20531;-87
2023/07/03 01:30:47;;;;;;;1999.90;999.90;;;16.00;99.90;;;;;;4918796;29;20571;-90
2023/07/03 01:33:25;;;;;;;1999.90;999.90;;;16.00;99.90;;;;;;4921606;29;20131;-91
2023/07/03 01:35:53;;;;;;;1999.90;999.90;;;16.00;99.90;;;;;;4920547;29;20144;-86
2023/07/03 01:38:20;;;;;;;1999.90;999.90;;;16.00;99.90;;;;;;4891492;29;20059;-85
2023/07/03 01:40:47;;;;;;;1999.90;999.90;;;16.00;99.90;;;;;;4921965;29;20055;-86
2023/07/03 01:43:13;;;;;;;1999.90;999.90;;;16.00;99.90;;;;;;4919680;29;20069;-87
2023/07/03 01:45:45;;;;;;;1999.90;999.90;;;16.00;99.90;;;;;;4919922;29;20147;-85
2023/07/03 01:48:10;;;;;;;1999.90;999.90;;;15.90;99.90;;;;;;4919877;29;20047;-87
2023/07/03 01:50:38;;;;;;;1999.90;999.90;;;15.90;99.90;;;;;;4918590;29;20366;-88
2023/07/03 01:53:12;;;;;;;1999.90;999.90;;;15.90;99.90;;;;;;4918726;29;20469;-86
2023/07/03 01:55:45;;;;;;;1999.90;999.90;;;15.90;99.90;;;;;;4917656;29;20131;-86
2023/07/03 01:58:22;;;;;;;1999.90;999.90;;;15.90;99.90;;;;;;4919344;29;20052;-85
2023/07/03 02:00:52;;;;;;;1999.90;999.90;;;15.90;99.90;;;;;;4919613;29;20052;-88
2023/07/03 02:03:40;;;;;;;1999.90;999.90;;;15.90;99.90;;;;;;4919481;29;20561;-86
2023/07/03 02:06:20;;;;;;;1999.90;999.90;;;15.90;99.90;;;;;;4919474;29;20055;-87
2023/07/03 02:08:49;;;;;;;1999.90;999.90;;;15.90;99.90;;;;;;4919849;29;20052;-89
2023/07/03 02:11:20;;;;;;;1999.90;999.90;;;15.90;99.90;;;;;;4919216;29;20058;-89
2023/07/03 02:13:46;;;;;;;1999.90;999.90;;;15.80;99.90;;;;;;4919144;29;20052;-89
2023/07/03 02:16:12;;;;;;;1999.90;999.90;;;15.80;99.90;;;;;;4920039;29;20115;-91
2023/07/03 02:18:38;;;;;;;1999.90;999.90;;;15.80;99.90;;;;;;4902854;29;20082;-88
2023/07/03 02:21:07;;;;;;;1999.90;999.90;;;15.80;99.90;;;;;;4918656;29;20054;-85
2023/07/03 02:23:32;;;;;;;1999.90;999.90;;;15.80;99.90;;;;;;4904445;29;20138;-90
2023/07/03 02:25:58;;;;;;;1999.90;999.90;;;15.70;99.90;;;;;;4918388;29;20127;-87
2023/07/03 02:28:24;;;;;;;1999.90;999.90;;;15.70;99.90;;;;;;4919265;29;20508;-86
2023/07/03 02:30:50;;;;;;;1999.90;999.90;;;15.70;99.90;;;;;;4902394;29;20052;-86
2023/07/03 02:33:16;;;;;;;1999.90;999.90;;;15.70;99.90;;;;;;4918911;29;20052;-86
2023/07/03 02:35:41;;;;;;;1999.90;999.90;;;15.60;99.90;;;;;;4919302;29;20059;-89
2023/07/03 02:38:10;;;;;;;1999.90;999.90;;;15.60;99.90;;;;;;4917988;29;20060;-88
2023/07/03 02:40:37;;;;;;;1999.90;999.90;;;15.60;99.90;;;;;;4919084;29;20052;-89
2023/07/03 02:43:04;;;;;;;1999.90;999.90;;;15.60;99.90;;;;;;4918679;29;20599;-88
2023/07/03 02:45:40;;;;;;;1999.90;999.90;;;15.50;99.90;;;;;;4918005;29;20051;-88
2023/07/03 02:48:08;;;;;;;1999.90;999.90;;;15.50;99.90;;;;;;4920529;29;20481;-89
2023/07/03 02:50:34;;;;;;;1999.90;999.90;;;15.40;99.90;;;;;;4918636;29;20054;-90
2023/07/03 02:53:00;;;;;;;1999.90;999.90;;;15.40;99.90;;;;;;4918477;29;20044;-87
2023/07/03 02:55:26;;;;;;;1999.90;999.90;;;15.30;99.90;;;;;;4917534;29;20104;-86
2023/07/03 02:57:53;;;;;;;1999.90;999.90;;;15.30;99.90;;;;;;4919249;29;20375;-85
2023/07/03 03:00:20;;;;;;;1999.90;999.90;;;15.30;99.90;;;;;;4918410;29;20056;-84
2023/07/03 03:02:47;;;;;;;1999.90;999.90;;;15.20;99.90;;;;;;4901678;29;20140;-85
2023/07/03 03:05:13;;;;;;;1999.90;999.90;;;15.20;99.90;;;;;;4918100;29;20139;-85
2023/07/03 03:07:39;;;;;;;1999.90;999.90;;;15.10;99.90;;;;;;4917256;29;20103;-85
2023/07/03 03:10:05;;;;;;;1999.90;999.90;;;15.10;99.90;;;;;;4917051;29;20087;-86
2023/07/03 03:12:31;;;;;;;1999.90;999.90;;;15.10;99.90;;;;;;4918549;29;20054;-92
2023/07/03 03:14:57;;;;;;;1999.90;999.90;;;15.00;99.90;;;;;;4917221;29;20396;-85
2023/07/03 03:17:22;;;;;;;1999.90;999.90;;;15.00;99.90;;;;;;4901147;29;20091;-85
2023/07/03 03:19:48;;;;;;;1999.90;999.90;;;14.90;99.90;;;;;;4917164;29;20052;-85
2023/07/03 03:22:14;;;;;;;1999.90;999.90;;;14.90;99.90;;;;;;4917127;29;20124;-84
2023/07/03 03:24:40;;;;;;;1999.90;999.90;;;14.90;99.90;;;;;;4917137;29;20151;-86
2023/07/03 03:27:06;;;;;;;1999.90;999.90;;;14.90;99.90;;;;;;4918773;29;20520;-87
2023/07/03 03:29:36;;;;;;;1999.90;999.90;;;14.80;99.90;;;;;;4917927;29;20106;-85
2023/07/03 03:32:03;;;;;;;1999.90;999.90;;;14.80;99.90;;;;;;4917885;29;20123;-85
2023/07/03 03:34:29;;;;;;;1999.90;999.90;;;14.80;99.90;;;;;;4917703;29;20075;-87
2023/07/03 03:36:56;;;;;;;1999.90;999.90;;;14.80;99.90;;;;;;4901543;29;20139;-86
2023/07/03 03:39:22;;;;;;;1999.90;999.90;;;14.80;99.90;;;;;;4917529;29;20048;-86
2023/07/03 03:41:47;;;;;;;1999.90;999.90;;;14.70;99.90;;;;;;4917802;29;20095;-87
2023/07/03 03:44:14;;;;;;;1999.90;999.90;;;14.70;99.90;;;;;;4918582;29;20477;-86
2023/07/03 03:46:39;;;;;;;1999.90;999.90;;;14.70;99.90;;;;;;4917677;29;20059;-84
2023/07/03 03:49:05;;;;;;;1999.90;999.90;;;14.70;99.90;;;;;;4916486;29;20044;-87
2023/07/03 03:51:31;;;;;;;1999.90;999.90;;;14.70;99.90;;;;;;4917618;29;20127;-88
2023/07/03 03:53:57;;;;;;;1999.90;999.90;;;14.70;99.90;;;;;;4917840;29;20048;-85
2023/07/03 03:56:22;;;;;;;1999.90;999.90;;;14.60;99.90;;;;;;4917469;29;20083;-87
2023/07/03 03:58:48;;;;;;;1999.90;999.90;;;14.60;99.90;;;;;;4917120;29;20048;-88
2023/07/03 04:01:14;;;;;;;1999.90;999.90;;;14.60;99.90;;;;;;4917973;29;20037;-87
2023/07/03 04:03:40;;;;;;;1999.90;999.90;;;14.60;99.90;;;;;;4916819;29;20390;-87
2023/07/03 04:06:06;;;;;;;1999.90;999.90;;;14.70;99.90;;;;;;4901087;29;20048;-86
2023/07/03 04:08:31;;;;;;;1999.90;999.90;;;14.70;99.90;;;;;;4917682;29;20055;-88
2023/07/03 04:10:57;;;;;;;1999.90;999.90;;;14.70;99.90;;;;;;4917999;29;20485;-88
2023/07/03 04:13:23;;;;;;;1999.90;999.90;;;14.70;99.90;;;;;;4917486;29;20052;-87
2023/07/03 04:15:58;;;;;;;1999.90;999.90;;;14.80;99.90;;;;;;4918112;29;20059;-89
2023/07/03 04:18:25;;;;;;;1999.90;999.90;;;14.80;99.90;;;;;;4918784;29;20044;-94
2023/07/03 04:20:51;;;;;;;1999.90;999.90;;;14.80;99.90;;;;;;4928555;29;20056;-91
2023/07/03 04:23:18;;;;;;;1999.90;999.90;;;14.80;99.90;;;;;;4927472;29;20047;-89
2023/07/03 04:25:44;;;;;;;1999.90;999.90;;;14.80;99.90;;;;;;4924790;29;20048;-86
2023/07/03 04:28:10;;;;;;;1999.90;999.90;;;14.80;99.90;;;;;;4922997;29;20051;-86
2023/07/03 04:30:36;;;;;;;1999.90;999.90;;;14.80;99.90;;;;;;4921985;29;20380;-85
2023/07/03 04:33:01;;;;;;;1999.90;999.90;;;14.80;99.90;;;;;;4922043;29;20048;-87
2023/07/03 04:35:27;;;;;;;1999.90;999.90;;;14.80;99.90;;;;;;4921276;29;20060;-90
2023/07/03 04:37:53;;;;;;;1999.90;999.90;;;14.80;99.90;;;;;;4920938;29;20077;-87
2023/07/03 04:40:18;;;;;;;1999.90;999.90;;;14.80;99.90;;;;;;4920146;29;20048;-90
2023/07/03 04:42:45;;;;;;;1999.90;999.90;;;14.80;99.90;;;;;;4920068;29;20135;-95
2023/07/03 04:45:12;;;;;;;1999.90;999.90;;;14.80;99.90;;;;;;4921007;29;20063;-92
2023/07/03 04:47:38;;;;;;;1999.90;999.90;;;14.80;99.90;;;;;;4921150;29;20052;-88
2023/07/03 04:50:10;;;;;;;1999.90;999.90;;;14.80;99.90;;;;;;4920945;29;20055;-86
2023/07/03 04:52:38;;;;;;;1999.90;999.90;;;14.80;99.90;;;;;;4920314;29;20052;-88
2023/07/03 04:55:08;;;;;;;1999.90;999.90;;;14.80;99.90;;;;;;4904895;29;20099;-86
2023/07/03 04:57:42;;;;;;;1999.90;999.90;;;14.90;99.90;;;;;;4920601;29;20044;-86
2023/07/03 05:00:18;;;;;;;1999.90;999.90;;;14.90;99.90;;;;;;4921168;29;20397;-87
2023/07/03 05:02:45;;;;;;;1999.90;999.90;;;15.00;99.90;;;;;;4920777;29;20048;-88
2023/07/03 05:05:12;;;;;;;1999.90;999.90;;;15.00;99.90;;;;;;4920636;29;20059;-86
2023/07/03 05:07:39;;;;;;;1999.90;999.90;;;15.00;99.90;;;;;;4904587;29;20054;-91
2023/07/03 05:10:06;;;;;;;1999.90;999.90;;;15.10;99.90;;;;;;4920465;29;20048;-84
2023/07/03 05:12:32;;;;;;;1999.90;999.90;;;15.10;99.90;;;;;;4921006;29;20100;-90
2023/07/03 05:14:57;;;;;;;1999.90;999.90;;;15.20;99.90;;;;;;4920359;29;20131;-81
2023/07/03 05:17:23;;;;;;;1999.90;999.90;;;15.20;99.90;;;;;;4919269;29;20481;-86
2023/07/03 05:19:50;;;;;;;1999.90;999.90;;;15.20;99.90;;;;;;4919069;29;20083;-86
2023/07/03 05:22:15;;;;;;;1999.90;999.90;;;15.30;99.90;;;;;;4919861;29;20051;-89
2023/07/03 05:24:41;;;;;;;1999.90;999.90;;;15.30;99.90;;;;;;4920501;29;20139;-84
2023/07/03 05:27:07;;;;;;;1999.90;999.90;;;15.40;99.90;;;;;;4919491;29;20100;-89
2023/07/03 05:29:33;;;;;;;1999.90;999.90;;;15.40;99.90;;;;;;4903854;29;20056;-87
2023/07/03 05:32:00;;;;;;;1999.90;999.90;;;15.40;99.90;;;;;;4919350;29;20050;-86
2023/07/03 05:34:27;;;;;;;1999.90;999.90;;;15.40;99.90;;;;;;4918865;29;20456;-86
2023/07/03 05:36:53;;;;;;;1999.90;999.90;;;15.40;99.90;;;;;;4919293;29;20055;-86
2023/07/03 05:39:19;;;;;;;1999.90;999.90;;;15.40;99.90;;;;;;4918865;29;20052;-85
2023/07/03 05:41:45;;;;;;;1999.90;999.90;;;15.50;99.90;;;;;;4920764;29;20044;-85
2023/07/03 05:44:11;;;;;;;1999.90;999.90;;;15.50;99.90;;;;;;4903145;29;20453;-87
2023/07/03 05:46:36;;;;;;;1999.90;999.90;;;15.60;99.90;;;;;;4918602;29;20458;-89
2023/07/03 05:49:02;;;;;;;1999.90;999.90;;;15.60;99.90;;;;;;4920450;29;20058;-89
2023/07/03 05:51:28;;;;;;;1999.90;999.90;;;15.70;99.90;;;;;;4918664;29;20527;-83
2023/07/03 05:53:54;;;;;;;1999.90;999.90;;;15.80;99.90;;;;;;4919629;29;20044;-81
2023/07/03 05:56:19;;;;;;;1999.90;999.90;;;15.90;99.90;;;;;;4902900;29;20473;-85
2023/07/03 05:58:45;;;;;;;1999.90;999.90;;;16.00;99.90;;;;;;4919859;29;20052;-86
2023/07/03 06:01:11;;;;;;;1999.90;999.90;;;16.00;99.90;;;;;;4918426;29;20417;-85
2023/07/03 06:03:37;;;;;;;1999.90;999.90;;;16.00;99.90;;;;;;4919475;29;20052;-85
2023/07/03 06:06:06;;;;;;;1999.90;999.90;;;16.00;99.90;;;;;;4920264;29;20047;-93
2023/07/03 06:08:32;;;;;;;1999.90;999.90;;;16.00;99.90;;;;;;4918169;29;20496;-86
2023/07/03 06:10:57;;;;;;;1999.90;999.90;;;16.00;99.90;;;;;;4918085;29;20048;-87
2023/07/03 06:13:23;;;;;;;1999.90;999.90;;;16.00;99.90;;;;;;4919446;29;20052;-86
2023/07/03 06:15:49;;;;;;;1999.90;999.90;;;16.10;99.90;;;;;;4919065;29;20050;-87
2023/07/03 06:18:15;;;;;;;1999.90;999.90;;;16.10;99.90;;;;;;4902908;29;20111;-83
2023/07/03 06:20:40;;;;;;;1999.90;999.90;;;16.10;99.90;;;;;;4917933;29;20056;-79
2023/07/03 06:23:06;;;;;;;1999.90;999.90;;;16.00;99.90;;;;;;4919789;29;20128;-78
2023/07/03 06:25:32;;;;;;;1999.90;999.90;;;15.90;99.90;;;;;;4902312;29;20055;-77
2023/07/03 06:27:58;;;;;;;1999.90;999.90;;;15.80;99.90;;;;;;4918224;29;20481;-78
2023/07/03 06:30:24;;;;;;;1999.90;999.90;;;15.60;99.90;;;;;;4918857;29;20480;-77
2023/07/03 06:32:50;;;;;;;1999.90;999.90;;;15.60;99.90;;;;;;4917739;29;20056;-78
2023/07/03 06:35:17;;;;;;;1999.90;999.90;;;15.50;99.90;;;;;;4901768;29;20060;-80
2023/07/03 06:37:42;;;;;;;1999.90;999.90;;;15.50;99.90;;;;;;4918796;29;20055;-80
2023/07/03 06:40:14;;;;;;;1999.90;999.90;;;15.40;99.90;;;;;;4917645;29;20409;-80
2023/07/03 06:42:40;;;;;;;1999.90;999.90;;;15.30;99.90;;;;;;4917186;29;20070;-80
2023/07/03 06:45:06;;;;;;;1999.90;999.90;;;15.30;99.90;;;;;;4918481;29;20127;-79
2023/07/03 06:47:32;;;;;;;1999.90;999.90;;;15.20;99.90;;;;;;4918553;29;20059;-79
2023/07/03 06:49:57;;;;;;;1999.90;999.90;;;15.30;99.90;;;;;;4918486;29;20400;-80
2023/07/03 06:52:23;;;;;;;1999.90;999.90;;;15.30;99.90;;;;;;4901634;29;20480;-79
2023/07/03 06:54:49;;;;;;;1999.90;999.90;;;15.40;99.90;;;;;;4917712;29;20063;-82
2023/07/03 06:57:14;;;;;;;1999.90;999.90;;;15.50;99.90;;;;;;4918122;29;20146;-85
2023/07/03 06:59:40;;;;;;;1999.90;999.90;;;15.60;99.90;;;;;;4917037;29;20048;-87
2023/07/03 07:02:06;;;;;;;1999.90;999.90;;;15.70;99.90;;;;;;4917246;29;20130;-81
2023/07/03 07:04:32;;;;;;;1999.90;999.90;;;15.80;99.90;;;;;;4918151;29;20044;-83
2023/07/03 07:06:58;;;;;;;1999.90;999.90;;;15.90;99.90;;;;;;4918251;29;20108;-81
2023/07/03 07:09:24;;;;;;;1999.90;999.90;;;16.00;99.90;;;;;;4918158;29;20055;-82
2023/07/03 07:11:50;;;;;;;1999.90;999.90;;;16.00;99.90;;;;;;4916835;29;20108;-80
2023/07/03 07:14:17;;;;;;;1999.90;999.90;;;16.00;99.90;;;;;;4917276;29;20048;-81
2023/07/03 07:16:43;;;;;;;1999.90;999.90;;;16.00;99.90;;;;;;4917204;29;20115;-80
2023/07/03 07:19:11;;;;;;;1999.90;999.90;;;16.00;99.90;;;;;;4917001;29;20048;-75
2023/07/03 07:21:38;;;;;;;1999.90;999.90;;;15.90;99.90;;;;;;4918213;29;20079;-77
2023/07/03 07:24:21;;;;;;;1999.90;999.90;;;15.80;99.90;;;;;;4917865;29;20126;-77
2023/07/03 07:26:48;;;;;;;1999.90;999.90;;;15.70;99.90;;;;;;4918787;29;20044;-77
2023/07/03 07:29:14;;;;;;;1999.90;999.90;;;15.60;99.90;;;;;;4920276;29;20072;-78
2023/07/03 07:31:40;;;;;;;1999.90;999.90;;;15.50;99.90;;;;;;4916792;29;20048;-78
2023/07/03 07:34:08;;;;;;;1999.90;999.90;;;15.40;99.90;;;;;;4916738;29;20437;-79
2023/07/03 07:36:34;;;;;;;1999.90;999.90;;;15.40;99.90;;;;;;4916989;29;20063;-79
2023/07/03 07:39:01;;;;;;;1999.90;999.90;;;15.40;99.90;;;;;;4918215;29;20094;-79
2023/07/03 07:41:27;;;;;;;1999.90;999.90;;;15.40;99.90;;;;;;4917724;29;20083;-82
2023/07/03 07:43:54;;;;;;;1999.90;999.90;;;15.40;99.90;;;;;;4918251;29;20087;-80
2023/07/03 07:46:25;;;;;;;1999.90;999.90;;;15.40;99.90;;;;;;4916936;29;20056;-81
2023/07/03 07:48:51;;;;;;;1999.90;999.90;;;15.40;99.90;;;;;;4916932;29;20074;-81
2023/07/03 07:51:17;;;;;;;1999.90;999.90;;;15.40;99.90;;;;;;4917566;29;20096;-81
2023/07/03 07:53:42;;;;;;;1999.90;999.90;;;15.40;99.90;;;;;;4917613;29;20048;-81
2023/07/03 07:56:10;;;;;;;1999.90;999.90;;;15.50;99.90;;;;;;4885471;29;20047;-81
2023/07/03 07:58:36;;;;;;;1999.90;999.90;;;15.50;99.90;;;;;;4917624;29;20044;-82
2023/07/03 08:01:03;;;;;;;1999.90;999.90;;;15.60;99.90;;;;;;4917485;29;20052;-81
2023/07/03 08:03:28;;;;;;;1999.90;999.90;;;15.60;99.90;;;;;;4917554;29;20374;-84
2023/07/03 08:06:03;;;;;;;1999.90;999.90;;;15.60;99.90;;;;;;4916354;29;20051;-81
2023/07/03 08:08:30;;;;;;;1999.90;999.90;;;15.60;99.90;;;;;;4918317;29;20162;-77
2023/07/03 08:10:59;;;;;;;1999.90;999.90;;;15.60;99.90;;;;;;4917440;29;20060;-79
2023/07/03 08:13:26;;;;;;;1999.90;999.90;;;15.60;99.90;;;;;;4918147;29;20383;-81
2023/07/03 08:15:52;;;;;;;1999.90;999.90;;;15.60;99.90;;;;;;4917307;29;20055;-79
2023/07/03 08:18:18;;;;;;;1999.90;999.90;;;15.70;99.90;;;;;;4916678;29;20056;-80
2023/07/03 08:20:45;;;;;;;1999.90;999.90;;;15.70;99.90;;;;;;4917955;29;20048;-80
2023/07/03 08:23:11;;;;;;;1999.90;999.90;;;15.70;99.90;;;;;;4918174;29;20052;-82
2023/07/03 08:25:36;;;;;;;1999.90;999.90;;;15.70;99.90;;;;;;4916636;29;20560;-82
2023/07/03 08:28:03;;;;;;;1999.90;999.90;;;15.70;99.90;;;;;;4916639;29;20414;-79
2023/07/03 08:30:28;;;;;;;1999.90;999.90;;;15.70;99.90;;;;;;4917264;29;20055;-80
2023/07/03 08:32:55;;;;;;;1999.90;999.90;;;15.80;99.90;;;;;;4900282;29;20044;-81
2023/07/03 08:35:20;;;;;;;1999.90;999.90;;;15.90;99.90;;;;;;4916312;29;20492;-80
2023/07/03 08:37:46;;;;;;;1999.90;999.90;;;16.00;99.90;;;;;;4917712;29;20048;-82
2023/07/03 08:40:21;;;;;;;1999.90;999.90;;;16.10;99.90;;;;;;4917789;29;20096;-82
2023/07/03 08:42:49;;;;;;;1999.90;999.90;;;16.20;99.90;;;;;;4916188;29;20058;-84
2023/07/03 08:45:17;;;;;;;1999.90;999.90;;;16.30;99.90;;;;;;4915917;29;20131;-82
2023/07/03 08:47:44;;;;;;;1999.90;999.90;;;16.40;99.90;;;;;;4916371;29;20484;-86
2023/07/03 08:50:16;;;;;;;1999.90;999.90;;;16.50;99.90;;;;;;4916869;29;20048;-83
2023/07/03 08:52:49;;;;;;;1999.90;999.90;;;16.50;99.90;;;;;;4916883;29;20044;-83
2023/07/03 08:55:21;;;;;;;1999.90;999.90;;;16.50;99.90;;;;;;4916984;29;20749;-84
2023/07/03 08:57:47;;;;;;;1999.90;999.90;;;16.50;99.90;;;;;;4916628;29;20319;-84
2023/07/03 09:00:13;;;;;;;1999.90;999.90;;;16.60;99.90;;;;;;4915690;29;20116;-83
2023/07/03 09:02:50;;;;;;;1999.90;999.90;;;16.60;99.90;;;;;;4916746;29;20048;-84
2023/07/03 09:05:16;;;;;;;1999.90;999.90;;;16.70;99.90;;;;;;4918011;29;20139;-82
2023/07/03 09:07:46;;;;;;;1999.90;999.90;;;16.80;99.90;;;;;;4904122;29;20455;-79
2023/07/03 09:10:23;;;;;;;1999.90;999.90;;;16.80;99.90;;;;;;4920954;29;20079;-83
2023/07/03 09:13:14;;;;;;;1999.90;999.90;;;16.80;99.90;;;;;;4903921;29;20135;-76
2023/07/03 09:15:43;;;;;;;1999.90;999.90;;;16.70;99.90;;;;;;4902849;29;20481;-78
2023/07/03 09:18:20;;;;;;;1999.90;999.90;;;16.60;99.90;;;;;;4919721;29;20146;-78
2023/07/03 09:20:46;;;;;;;1999.90;999.90;;;16.40;99.90;;;;;;4919632;29;20048;-77
2023/07/03 09:23:43;;;;;;;1999.90;999.90;;;16.40;99.90;;;;;;4919322;29;20508;-81
2023/07/03 09:26:30;;;;;;;1999.90;999.90;;;16.40;99.90;;;;;;4916414;29;20059;-87
2023/07/03 09:28:58;;;;;;;1999.90;999.90;;;16.40;99.90;;;;;;4920038;29;20059;-81
2023/07/03 09:31:27;;;;;;;1999.90;999.90;;;16.40;99.90;;;;;;4918614;29;20048;-81
2023/07/03 09:33:53;;;;;;;1999.90;999.90;;;16.40;99.90;;;;;;4920029;29;20111;-74
2023/07/03 09:36:36;;;;;;;1999.90;999.90;;;16.30;99.90;;;;;;4918242;29;20489;-80
2023/07/03 09:39:17;;;;;;;1999.90;999.90;;;16.20;99.90;;;;;;4920337;29;20055;-77
2023/07/03 09:41:43;;;;;;;1999.90;999.90;;;16.10;99.90;;;;;;4919656;29;20052;-78
2023/07/03 09:44:20;;;;;;;1999.90;999.90;;;15.90;99.90;;;;;;4919104;29;20504;-75
2023/07/03 09:46:46;;;;;;;1999.90;999.90;;;15.80;99.90;;;;;;4918798;29;20048;-79
2023/07/03 09:49:28;;;;;;;1999.90;999.90;;;15.60;99.90;;;;;;4919288;29;20056;-76
2023/07/03 09:51:57;;;;;;;1999.90;999.90;;;15.50;99.90;;;;;;4919114;29;20512;-77
2023/07/03 09:54:27;;;;;;;1999.90;999.90;;;15.40;99.90;;;;;;4919427;29;20052;-78
2023/07/03 09:56:53;;;;;;;1999.90;999.90;;;15.30;99.90;;;;;;4918844;29;20044;-77
2023/07/03 09:59:19;;;;;;;1999.90;999.90;;;15.40;99.90;;;;;;4919637;29;20058;-78
2023/07/03 10:01:47;;;;;;;1999.90;999.90;;;15.50;99.90;;;;;;4919398;29;20040;-80
2023/07/03 10:04:16;;;;;;;1999.90;999.90;;;15.50;99.90;;;;;;4919753;29;20044;-77
2023/07/03 10:07:10;;;;;;;1999.90;999.90;;;15.70;99.90;;;;;;4918308;29;20052;-79
2023/07/03 10:09:40;;;;;;;1999.90;999.90;;;15.90;99.90;;;;;;4917776;29;20127;-84
2023/07/03 10:12:20;;;;;;;1999.90;999.90;;;16.10;99.90;;;;;;4919152;29;20044;-79
2023/07/03 10:14:55;;;;;;;1999.90;999.90;;;16.10;99.90;;;;;;4918895;29;20048;-78
2023/07/03 10:17:29;;;;;;;1999.90;999.90;;;16.20;99.90;;;;;;4916919;29;20048;-83
2023/07/03 10:20:00;;;;;;;1999.90;999.90;;;16.30;99.90;;;;;;4918525;29;20048;-83
2023/07/03 10:22:26;;;;;;;1999.90;999.90;;;16.30;99.90;;;;;;4919105;29;20040;-80
2023/07/03 10:24:54;;;;;;;1999.90;999.90;;;16.30;99.90;;;;;;4918954;29;20116;-82
2023/07/03 10:27:24;;;;;;;1999.90;999.90;;;16.40;99.90;;;;;;4918009;29;20056;-81
2023/07/03 10:29:53;;;;;;;1999.90;999.90;;;16.50;99.90;;;;;;4918842;29;20060;-86
2023/07/03 10:32:20;;;;;;;1999.90;999.90;;;16.50;99.90;;;;;;4918411;29;20044;-82
2023/07/03 10:34:52;;;;;;;1999.90;999.90;;;16.70;99.90;;;;;;4917309;29;20510;-82
2023/07/03 10:37:20;;;;;;;1999.90;999.90;;;16.70;99.90;;;;;;4918356;29;20103;-78
2023/07/03 10:40:17;;;;;;;1999.90;999.90;;;16.80;99.90;;;;;;4917740;29;20064;-81
2023/07/03 10:42:59;;;;;;;1999.90;999.90;;;16.90;99.90;;;;;;4919516;29;20395;-85
2023/07/03 10:45:26;;;;;;;1999.90;999.90;;;16.90;99.90;;;;;;4902613;29;20110;-82
2023/07/03 10:48:19;;;;;;;1999.90;999.90;;;16.80;99.90;;;;;;4918947;29;20485;-81
2023/07/03 10:50:45;;;;;;;;;;;16.70;99.90;;;;;;4919528;29;20048;-76
2023/07/03 10:53:11;;;;;;;1999.90;999.90;;;16.50;99.90;;;;;;4918443;29;20037;-84
2023/07/03 10:55:52;;;;;;;1999.90;999.90;;;16.40;99.90;;;;;;4917745;29;20062;-79
2023/07/03 10:58:38;;;;;;;1999.90;999.90;;;16.30;99.90;;;;;;4918215;29;20131;-79
2023/07/03 11:01:30;;;;;;;1999.90;999.90;;;16.20;99.90;;;;;;4919118;29;20430;-84
2023/07/03 11:04:25;;;;;;;1999.90;999.90;;;16.20;99.90;;;;;;4918998;29;20377;-86
2023/07/03 11:07:08;;;;;;;1999.90;999.90;;;16.20;99.90;;;;;;4917228;29;20135;-79
2023/07/03 11:09:40;;;;;;;1999.90;999.90;;;16.20;99.90;;;;;;4919651;29;20055;-78
2023/07/03 11:12:30;;;;;;;1999.90;999.90;;;16.30;99.90;;;;;;4918498;29;20044;-80
2023/07/03 11:15:24;;;;;;;1999.90;999.90;;;16.50;99.90;;;;;;4902614;29;20127;-79
2023/07/03 11:18:31;;;;;;;1999.90;999.90;;;16.70;99.90;;;;;;4917606;29;20575;-82
2023/07/03 11:21:19;;;;;;;1999.90;999.90;;;16.90;99.90;;;;;;4896894;29;20088;-76
2023/07/03 11:24:17;;;;;;;1999.90;999.90;;;17.10;99.90;;;;;;4915389;29;20060;-86
2023/07/03 11:26:54;;;;;;;1999.90;999.90;;;17.40;99.90;;;;;;4917927;29;20129;-75
2023/07/03 11:29:20;;;;;;;1999.90;999.90;;;17.50;99.90;;;;;;4917424;29;20052;-83
2023/07/03 11:31:47;;;;;;;1999.90;999.90;;;17.60;99.90;;;;;;4917790;29;20048;-85
2023/07/03 11:34:15;;;;;;;1999.90;999.90;;;17.60;99.90;;;;;;4916522;29;20047;-78
2023/07/03 11:36:52;;;;;;;1999.90;999.90;;;17.50;99.90;;;;;;4917591;29;20060;-80
2023/07/03 11:39:27;;;;;;;1999.90;999.90;;;17.50;99.90;;;;;;4917785;29;20134;-83
2023/07/03 11:42:13;;;;;;;1999.90;999.90;;;17.40;99.90;;;;;;4917438;29;20457;-80
2023/07/03 11:45:00;;;;;;;1999.90;999.90;;;17.40;99.90;;;;;;4917760;29;20055;-82
2023/07/03 11:47:30;;;;;;;1999.90;999.90;;;17.40;99.90;;;;;;4917316;29;20055;-80
2023/07/03 11:50:05;;;;;;;1999.90;999.90;;;17.40;99.90;;;;;;4916401;29;20056;-80
2023/07/03 11:52:36;;;;;;;1999.90;999.90;;;17.40;99.90;;;;;;4885333;29;20048;-79
2023/07/03 11:55:05;;;;;;;1999.90;999.90;;;17.40;99.90;;;;;;4917871;29;20052;-85
2023/07/03 11:57:44;;;;;;;1999.90;999.90;;;17.40;99.90;;;;;;4918027;29;20396;-81
2023/07/03 12:00:27;;;;;;;1999.90;999.90;;;17.30;99.90;;;;;;4917071;29;20389;-81
2023/07/03 12:02:54;;;;;;;;;;;17.30;99.90;;;;;;4918599;29;20044;-78
2023/07/03 12:05:48;;;;;;;1999.90;999.90;;;17.40;99.90;;;;;;4900637;29;19930;-78
2023/07/03 12:08:17;;;;;;;1999.90;999.90;;;17.50;99.90;;;;;;4917397;29;20104;-77
2023/07/03 12:10:49;;;;;;;1999.90;999.90;;;17.60;99.90;;;;;;4916632;29;20099;-77
2023/07/03 12:13:50;;;;;;;1999.90;999.90;;;17.70;99.90;;;;;;4916048;29;20048;-79